메인 페이지
METAR-TAF:

METAR-TAF

공항 :

라바트, 모로코

위도: 34-03N, 경도: 006-46W, 고도: 84m

현재 날씨관측

예보는 39분 전, 15:30시(UTC)에 발표되었습니다.
6kt
온도 19°C
습도 64%
기압 1023 hPa
시정 10km 이상
1500m 미만 상공 구름 및 적란운 없음

METAR: GMME 181530Z 28006KT CAVOK 19/12 Q1023 NOSIG

시각: 16:09 (16:09 UTC)

예보

예보는 11 시간 9분 전, 05:00시(UTC)에 발표되었습니다.
예보 대상 시간: 18일 06시부터 19일 12시까지 (UTC)
3kt
시정: 8000m
일시적
18일 12시부터 18일 18시까지 (UTC)
8kt
시정 10km 이상
고도 1500ft 상공 구름 보통
고도 2000ft 상공 구름 보통

TAF: GMME 180500Z 1806/1912 18003KT 8000 NSC TEMPO 1812/1818 26008KT 9999 SCT015 SCT020

4,000개 이상의 공항 관측 자료 및 예보 (METAR 및 TAF 보고).

지도상에서 검색 가능한 기상관측소가 노란 점과 빨간 점으로 표시되어 있습니다.

기상관측소 명을 보려면 표시 위로 마우스를 이동하세요.

날씨 관측과 예보를 보려면 클릭하세요.

지도 변경 : 확대하려면 엑스 표시가 있는 녹색 버튼, 축소하려면 빼기 표시가 있는 녹색 버튼, 다음 페이지의 지도를 보려면 녹색 화살표를 클릭하세요.


METAR-TAF: